sensor_id;sensor_type;location;lat;lon;timestamp;pressure;altitude;pressure_sealevel;temperature;humidity
58018;BME280;43810;50.860;19.226;2022-10-26T00:00:29;98959.44;;;8.54;88.26
58018;BME280;43810;50.860;19.226;2022-10-26T00:03:15;98948.41;;;8.52;88.48
58018;BME280;43810;50.860;19.226;2022-10-26T00:05:41;98951.66;;;8.49;88.61
58018;BME280;43810;50.860;19.226;2022-10-26T00:08:06;98961.31;;;8.45;88.54
58018;BME280;43810;50.860;19.226;2022-10-26T00:10:34;98960.06;;;8.43;88.71
58018;BME280;43810;50.860;19.226;2022-10-26T00:13:00;98951.50;;;8.46;88.29
58018;BME280;43810;50.860;19.226;2022-10-26T00:15:27;98960.09;;;8.60;88.19
58018;BME280;43810;50.860;19.226;2022-10-26T00:17:53;98965.41;;;8.60;88.26
58018;BME280;43810;50.860;19.226;2022-10-26T00:20:19;98958.53;;;8.59;88.49
58018;BME280;43810;50.860;19.226;2022-10-26T00:22:45;98956.81;;;8.63;88.15
58018;BME280;43810;50.860;19.226;2022-10-26T00:25:11;98960.09;;;8.60;88.38
58018;BME280;43810;50.860;19.226;2022-10-26T00:27:36;98961.19;;;8.50;88.34
58018;BME280;43810;50.860;19.226;2022-10-26T00:30:04;98967.09;;;8.47;88.47
58018;BME280;43810;50.860;19.226;2022-10-26T00:32:30;98965.38;;;8.43;88.93
58018;BME280;43810;50.860;19.226;2022-10-26T00:34:56;98963.50;;;8.43;88.44
58018;BME280;43810;50.860;19.226;2022-10-26T00:37:22;98959.63;;;8.41;88.70
58018;BME280;43810;50.860;19.226;2022-10-26T00:39:48;98964.91;;;8.41;88.69
58018;BME280;43810;50.860;19.226;2022-10-26T00:42:17;98967.25;;;8.42;88.46
58018;BME280;43810;50.860;19.226;2022-10-26T00:49:41;98950.69;;;8.28;88.41
58018;BME280;43810;50.860;19.226;2022-10-26T00:52:11;98963.78;;;8.33;88.53
58018;BME280;43810;50.860;19.226;2022-10-26T00:54:38;98966.47;;;8.42;88.49
58018;BME280;43810;50.860;19.226;2022-10-26T00:57:04;98966.78;;;8.40;88.55
58018;BME280;43810;50.860;19.226;2022-10-26T00:59:31;98967.25;;;8.51;88.33
58018;BME280;43810;50.860;19.226;2022-10-26T01:01:57;98959.63;;;8.41;88.46
58018;BME280;43810;50.860;19.226;2022-10-26T01:04:23;98967.22;;;8.33;88.68
58018;BME280;43810;50.860;19.226;2022-10-26T01:06:50;98966.09;;;8.26;88.76
58018;BME280;43810;50.860;19.226;2022-10-26T01:09:17;98972.19;;;8.26;88.86
58018;BME280;43810;50.860;19.226;2022-10-26T01:11:43;98973.44;;;8.29;88.58
58018;BME280;43810;50.860;19.226;2022-10-26T01:14:11;98963.28;;;8.22;88.72
58018;BME280;43810;50.860;19.226;2022-10-26T01:27:33;98967.78;;;8.13;89.13
58018;BME280;43810;50.860;19.226;2022-10-26T01:33:20;98957.69;;;8.24;88.83
58018;BME280;43810;50.860;19.226;2022-10-26T01:36:00;98953.78;;;8.21;88.97
58018;BME280;43810;50.860;19.226;2022-10-26T01:41:10;98962.66;;;8.17;88.81
58018;BME280;43810;50.860;19.226;2022-10-26T01:43:51;98959.84;;;8.13;88.78
58018;BME280;43810;50.860;19.226;2022-10-26T01:46:21;98952.50;;;8.10;89.23
58018;BME280;43810;50.860;19.226;2022-10-26T01:48:50;98949.84;;;8.10;88.66
58018;BME280;43810;50.860;19.226;2022-10-26T01:51:18;98953.56;;;8.00;88.99
58018;BME280;43810;50.860;19.226;2022-10-26T01:53:45;98966.81;;;7.92;89.08
58018;BME280;43810;50.860;19.226;2022-10-26T01:56:24;98964.97;;;8.01;89.08
58018;BME280;43810;50.860;19.226;2022-10-26T02:01:48;98952.50;;;8.02;89.17
58018;BME280;43810;50.860;19.226;2022-10-26T02:04:41;98979.47;;;8.04;88.76
58018;BME280;43810;50.860;19.226;2022-10-26T02:10:15;98973.31;;;7.86;88.97
58018;BME280;43810;50.860;19.226;2022-10-26T02:18:45;98977.84;;;7.85;89.48
58018;BME280;43810;50.860;19.226;2022-10-26T02:21:18;98983.50;;;7.92;89.25
58018;BME280;43810;50.860;19.226;2022-10-26T02:23:47;98983.13;;;7.85;88.99
58018;BME280;43810;50.860;19.226;2022-10-26T02:26:16;98985.94;;;7.80;89.26
58018;BME280;43810;50.860;19.226;2022-10-26T02:28:48;98983.72;;;7.74;89.10
58018;BME280;43810;50.860;19.226;2022-10-26T02:31:15;98991.19;;;7.72;89.16
58018;BME280;43810;50.860;19.226;2022-10-26T02:33:46;98988.66;;;7.58;89.32
58018;BME280;43810;50.860;19.226;2022-10-26T02:36:22;98995.66;;;7.62;89.73
58018;BME280;43810;50.860;19.226;2022-10-26T02:38:51;98988.78;;;7.61;89.42
58018;BME280;43810;50.860;19.226;2022-10-26T02:41:19;99001.75;;;7.63;89.39
58018;BME280;43810;50.860;19.226;2022-10-26T02:43:51;99007.28;;;7.53;89.46
58018;BME280;43810;50.860;19.226;2022-10-26T02:46:19;98997.66;;;7.57;89.61
58018;BME280;43810;50.860;19.226;2022-10-26T02:48:47;98996.75;;;7.61;89.37
58018;BME280;43810;50.860;19.226;2022-10-26T02:51:26;99005.84;;;7.69;89.28
58018;BME280;43810;50.860;19.226;2022-10-26T02:59:19;99011.31;;;7.50;89.66
58018;BME280;43810;50.860;19.226;2022-10-26T03:01:46;99013.22;;;7.50;89.65
58018;BME280;43810;50.860;19.226;2022-10-26T03:04:13;99013.22;;;7.50;89.77
58018;BME280;43810;50.860;19.226;2022-10-26T03:06:38;99004.16;;;7.51;89.59
58018;BME280;43810;50.860;19.226;2022-10-26T03:09:04;99008.34;;;7.43;89.62
58018;BME280;43810;50.860;19.226;2022-10-26T03:11:30;99005.50;;;7.40;89.96
58018;BME280;43810;50.860;19.226;2022-10-26T03:13:56;99010.47;;;7.33;89.68
58018;BME280;43810;50.860;19.226;2022-10-26T03:16:21;99013.88;;;7.33;89.92
58018;BME280;43810;50.860;19.226;2022-10-26T03:18:47;99008.84;;;7.23;90.22
58018;BME280;43810;50.860;19.226;2022-10-26T03:21:13;99016.25;;;7.35;89.87
58018;BME280;43810;50.860;19.226;2022-10-26T03:23:38;99010.94;;;7.35;89.85
58018;BME280;43810;50.860;19.226;2022-10-26T03:26:04;99013.88;;;7.33;89.81
58018;BME280;43810;50.860;19.226;2022-10-26T03:28:30;99012.31;;;7.32;89.70
58018;BME280;43810;50.860;19.226;2022-10-26T03:30:56;99015.56;;;7.29;89.70
58018;BME280;43810;50.860;19.226;2022-10-26T03:33:22;99010.91;;;7.26;89.66
58018;BME280;43810;50.860;19.226;2022-10-26T03:35:53;99010.94;;;7.35;89.67
58018;BME280;43810;50.860;19.226;2022-10-26T03:38:19;99018.28;;;7.38;89.93
58018;BME280;43810;50.860;19.226;2022-10-26T03:40:45;99016.72;;;7.37;89.78
58018;BME280;43810;50.860;19.226;2022-10-26T03:43:13;99023.75;;;7.41;90.27
58018;BME280;43810;50.860;19.226;2022-10-26T03:45:38;99019.72;;;7.44;90.53
58018;BME280;43810;50.860;19.226;2022-10-26T03:48:04;99020.97;;;7.46;89.95
58018;BME280;43810;50.860;19.226;2022-10-26T03:50:30;99023.94;;;7.45;90.13
58018;BME280;43810;50.860;19.226;2022-10-26T03:52:56;99019.28;;;7.50;89.71
58018;BME280;43810;50.860;19.226;2022-10-26T03:55:21;99018.44;;;7.41;89.69
58018;BME280;43810;50.860;19.226;2022-10-26T03:57:47;99025.19;;;7.47;89.64
58018;BME280;43810;50.860;19.226;2022-10-26T04:00:15;99030.50;;;7.47;89.20
58018;BME280;43810;50.860;19.226;2022-10-26T04:02:43;99028.25;;;7.41;89.46
58018;BME280;43810;50.860;19.226;2022-10-26T04:05:11;99029.78;;;7.33;89.64
58018;BME280;43810;50.860;19.226;2022-10-26T04:07:38;99036.34;;;7.36;89.55
58018;BME280;43810;50.860;19.226;2022-10-26T04:10:05;99035.19;;;7.28;89.46
58018;BME280;43810;50.860;19.226;2022-10-26T04:12:31;99026.94;;;7.30;89.64
58018;BME280;43810;50.860;19.226;2022-10-26T04:14:56;99019.78;;;7.30;89.54
58018;BME280;43810;50.860;19.226;2022-10-26T04:17:23;99019.19;;;7.33;89.38
58018;BME280;43810;50.860;19.226;2022-10-26T04:19:49;99017.31;;;7.34;89.11
58018;BME280;43810;50.860;19.226;2022-10-26T04:22:15;99021.84;;;7.33;88.93
58018;BME280;43810;50.860;19.226;2022-10-26T04:24:41;99018.59;;;7.36;88.84
58018;BME280;43810;50.860;19.226;2022-10-26T04:27:07;99018.06;;;7.25;89.27
58018;BME280;43810;50.860;19.226;2022-10-26T04:29:33;99007.88;;;7.19;89.13
58018;BME280;43810;50.860;19.226;2022-10-26T04:31:58;99014.09;;;7.14;89.33
58018;BME280;43810;50.860;19.226;2022-10-26T04:34:24;99009.50;;;7.06;89.27
58018;BME280;43810;50.860;19.226;2022-10-26T04:36:50;99012.16;;;7.06;89.13
58018;BME280;43810;50.860;19.226;2022-10-26T04:39:16;99005.41;;;7.00;88.91
58018;BME280;43810;50.860;19.226;2022-10-26T04:41:44;99011.00;;;6.99;89.02
58018;BME280;43810;50.860;19.226;2022-10-26T04:44:10;99008.78;;;6.92;89.23
58018;BME280;43810;50.860;19.226;2022-10-26T04:46:36;99016.09;;;6.95;89.25
58018;BME280;43810;50.860;19.226;2022-10-26T04:49:02;99010.03;;;6.95;89.72
58018;BME280;43810;50.860;19.226;2022-10-26T04:51:27;99010.53;;;6.97;90.11
58018;BME280;43810;50.860;19.226;2022-10-26T04:53:53;99011.13;;;6.94;89.81
58018;BME280;43810;50.860;19.226;2022-10-26T04:56:19;99010.66;;;6.92;90.24
58018;BME280;43810;50.860;19.226;2022-10-26T04:58:45;99006.91;;;6.93;90.10
58018;BME280;43810;50.860;19.226;2022-10-26T05:01:11;99006.00;;;6.97;89.81
58018;BME280;43810;50.860;19.226;2022-10-26T05:03:36;99008.00;;;6.92;89.66
58018;BME280;43810;50.860;19.226;2022-10-26T05:06:03;99016.53;;;6.88;90.03
58018;BME280;43810;50.860;19.226;2022-10-26T05:08:28;99014.59;;;6.80;89.82
58018;BME280;43810;50.860;19.226;2022-10-26T05:10:54;99029.50;;;6.76;89.71
58018;BME280;43810;50.860;19.226;2022-10-26T05:13:20;99030.22;;;6.68;89.66
58018;BME280;43810;50.860;19.226;2022-10-26T05:15:46;99027.88;;;6.53;89.45
58018;BME280;43810;50.860;19.226;2022-10-26T05:18:12;99038.25;;;6.49;89.71
58018;BME280;43810;50.860;19.226;2022-10-26T05:20:38;99026.34;;;6.38;89.62
58018;BME280;43810;50.860;19.226;2022-10-26T05:23:06;99038.69;;;6.29;89.67
58018;BME280;43810;50.860;19.226;2022-10-26T05:25:36;99039.25;;;6.26;89.50
58018;BME280;43810;50.860;19.226;2022-10-26T05:28:04;99043.59;;;6.22;89.15
58018;BME280;43810;50.860;19.226;2022-10-26T05:30:30;99046.03;;;6.18;89.38
58018;BME280;43810;50.860;19.226;2022-10-26T05:32:58;99045.13;;;6.23;89.62
58018;BME280;43810;50.860;19.226;2022-10-26T05:35:25;99050.72;;;6.22;89.94
58018;BME280;43810;50.860;19.226;2022-10-26T05:37:52;99049.47;;;6.19;90.00
58018;BME280;43810;50.860;19.226;2022-10-26T05:40:18;99056.09;;;6.30;89.79
58018;BME280;43810;50.860;19.226;2022-10-26T05:42:44;99056.47;;;6.37;89.97
58018;BME280;43810;50.860;19.226;2022-10-26T05:45:11;99059.81;;;6.43;90.34
58018;BME280;43810;50.860;19.226;2022-10-26T05:47:40;99054.41;;;6.48;90.24
58018;BME280;43810;50.860;19.226;2022-10-26T05:50:08;99061.75;;;6.51;90.48
58018;BME280;43810;50.860;19.226;2022-10-26T05:52:52;99061.16;;;6.68;90.30
58018;BME280;43810;50.860;19.226;2022-10-26T05:55:18;99066.03;;;6.74;90.37
58018;BME280;43810;50.860;19.226;2022-10-26T05:57:44;99066.03;;;6.74;90.24
58018;BME280;43810;50.860;19.226;2022-10-26T06:03:15;99073.13;;;6.65;90.82
58018;BME280;43810;50.860;19.226;2022-10-26T06:05:50;99065.75;;;6.76;90.52
58018;BME280;43810;50.860;19.226;2022-10-26T06:08:17;99073.88;;;6.79;90.47
58018;BME280;43810;50.860;19.226;2022-10-26T06:10:43;99076.19;;;6.81;90.49
58018;BME280;43810;50.860;19.226;2022-10-26T06:13:08;99073.81;;;6.93;90.29
58018;BME280;43810;50.860;19.226;2022-10-26T06:18:27;99081.97;;;7.19;90.81
58018;BME280;43810;50.860;19.226;2022-10-26T06:21:00;99081.16;;;7.32;90.60
58018;BME280;43810;50.860;19.226;2022-10-26T06:23:39;99085.63;;;7.45;90.16
58018;BME280;43810;50.860;19.226;2022-10-26T06:27:12;99083.19;;;7.57;89.98
58018;BME280;43810;50.860;19.226;2022-10-26T06:29:33;99091.09;;;7.71;89.77
58018;BME280;43810;50.860;19.226;2022-10-26T06:32:00;99083.28;;;7.75;90.01
58018;BME280;43810;50.860;19.226;2022-10-26T06:34:30;99092.44;;;7.91;89.95
58018;BME280;43810;50.860;19.226;2022-10-26T06:36:59;99084.22;;;8.01;89.70
58018;BME280;43810;50.860;19.226;2022-10-26T06:39:30;99091.25;;;8.06;89.55
58018;BME280;43810;50.860;19.226;2022-10-26T06:42:01;99087.84;;;8.14;89.37
58018;BME280;43810;50.860;19.226;2022-10-26T06:44:27;99092.97;;;8.10;89.62
58018;BME280;43810;50.860;19.226;2022-10-26T06:47:02;99100.22;;;8.18;89.66
58018;BME280;43810;50.860;19.226;2022-10-26T06:49:35;99104.44;;;8.28;89.49
58018;BME280;43810;50.860;19.226;2022-10-26T06:52:11;99098.44;;;8.45;88.87
58018;BME280;43810;50.860;19.226;2022-10-26T06:54:49;99110.78;;;8.49;89.02
58018;BME280;43810;50.860;19.226;2022-10-26T06:57:21;99105.50;;;8.49;88.88
58018;BME280;43810;50.860;19.226;2022-10-26T06:59:52;99111.28;;;8.60;88.85
58018;BME280;43810;50.860;19.226;2022-10-26T07:02:19;99113.03;;;8.73;89.07
58018;BME280;43810;50.860;19.226;2022-10-26T07:04:45;99116.31;;;8.79;88.84
58018;BME280;43810;50.860;19.226;2022-10-26T07:07:13;99120.28;;;8.98;88.46
58018;BME280;43810;50.860;19.226;2022-10-26T07:09:40;99110.28;;;9.04;88.43
58018;BME280;43810;50.860;19.226;2022-10-26T07:12:06;99120.88;;;9.13;88.34
58018;BME280;43810;50.860;19.226;2022-10-26T07:14:32;99114.66;;;9.26;87.87
58018;BME280;43810;50.860;19.226;2022-10-26T07:16:57;99121.88;;;9.34;88.16
58018;BME280;43810;50.860;19.226;2022-10-26T07:19:23;99122.78;;;9.55;87.36
58018;BME280;43810;50.860;19.226;2022-10-26T07:21:49;99121.84;;;9.51;87.41
58018;BME280;43810;50.860;19.226;2022-10-26T07:24:14;99117.28;;;9.60;87.79
58018;BME280;43810;50.860;19.226;2022-10-26T07:26:41;99126.34;;;9.76;87.49
58018;BME280;43810;50.860;19.226;2022-10-26T07:29:06;99121.97;;;9.72;87.34
58018;BME280;43810;50.860;19.226;2022-10-26T07:31:32;99120.38;;;9.88;87.38
58018;BME280;43810;50.860;19.226;2022-10-26T07:33:58;99126.44;;;10.06;87.21
58018;BME280;43810;50.860;19.226;2022-10-26T07:36:23;99118.59;;;10.18;87.25
58018;BME280;43810;50.860;19.226;2022-10-26T07:38:52;99124.00;;;10.39;86.78
58018;BME280;43810;50.860;19.226;2022-10-26T07:41:19;99128.47;;;10.56;86.41
58018;BME280;43810;50.860;19.226;2022-10-26T07:43:45;99125.75;;;10.64;86.32
58018;BME280;43810;50.860;19.226;2022-10-26T07:46:11;99129.44;;;10.80;85.98
58018;BME280;43810;50.860;19.226;2022-10-26T07:48:37;99129.06;;;10.91;86.05
58018;BME280;43810;50.860;19.226;2022-10-26T07:51:04;99125.31;;;11.12;85.33
58018;BME280;43810;50.860;19.226;2022-10-26T07:53:29;99125.13;;;11.17;84.54
58018;BME280;43810;50.860;19.226;2022-10-26T07:55:56;99127.06;;;11.29;84.75
58018;BME280;43810;50.860;19.226;2022-10-26T07:58:22;99123.00;;;11.44;84.34
58018;BME280;43810;50.860;19.226;2022-10-26T08:00:51;99124.63;;;11.57;84.51
58018;BME280;43810;50.860;19.226;2022-10-26T08:03:18;99129.88;;;11.66;84.09
58018;BME280;43810;50.860;19.226;2022-10-26T08:05:45;99130.31;;;11.68;83.07
58018;BME280;43810;50.860;19.226;2022-10-26T08:08:12;99133.41;;;11.78;82.63
58018;BME280;43810;50.860;19.226;2022-10-26T08:10:45;99130.44;;;11.92;83.66
58018;BME280;43810;50.860;19.226;2022-10-26T08:13:11;99128.25;;;12.06;82.83
58018;BME280;43810;50.860;19.226;2022-10-26T08:15:38;99127.69;;;12.13;81.62
58018;BME280;43810;50.860;19.226;2022-10-26T08:18:04;99127.63;;;12.21;81.67
58018;BME280;43810;50.860;19.226;2022-10-26T08:20:30;99128.63;;;12.41;81.58
58018;BME280;43810;50.860;19.226;2022-10-26T08:22:56;99127.97;;;12.56;81.06
58018;BME280;43810;50.860;19.226;2022-10-26T08:25:22;99137.63;;;12.73;80.31
58018;BME280;43810;50.860;19.226;2022-10-26T08:27:48;99129.75;;;12.77;79.41
58018;BME280;43810;50.860;19.226;2022-10-26T08:30:14;99128.97;;;12.88;79.40
58018;BME280;43810;50.860;19.226;2022-10-26T08:32:40;99129.94;;;12.96;78.59
58018;BME280;43810;50.860;19.226;2022-10-26T08:35:09;99134.94;;;13.10;79.57
58018;BME280;43810;50.860;19.226;2022-10-26T08:37:35;99137.72;;;13.25;78.67
58018;BME280;43810;50.860;19.226;2022-10-26T08:40:03;99143.03;;;13.37;78.90
58018;BME280;43810;50.860;19.226;2022-10-26T08:42:39;99140.31;;;13.50;78.02
58018;BME280;43810;50.860;19.226;2022-10-26T08:45:28;99136.66;;;13.70;76.81
58018;BME280;43810;50.860;19.226;2022-10-26T08:48:00;99133.44;;;13.92;76.94
58018;BME280;43810;50.860;19.226;2022-10-26T08:50:38;99143.91;;;14.13;75.71
58018;BME280;43810;50.860;19.226;2022-10-26T08:58:57;99131.59;;;14.40;74.11
58018;BME280;43810;50.860;19.226;2022-10-26T09:01:23;99132.63;;;14.51;73.88
58018;BME280;43810;50.860;19.226;2022-10-26T09:03:49;99136.00;;;14.64;72.08
58018;BME280;43810;50.860;19.226;2022-10-26T09:06:22;99135.13;;;14.75;72.33
58018;BME280;43810;50.860;19.226;2022-10-26T09:08:55;99127.31;;;14.86;72.52
58018;BME280;43810;50.860;19.226;2022-10-26T09:12:16;99139.63;;;15.06;71.27
58018;BME280;43810;50.860;19.226;2022-10-26T09:14:59;99130.78;;;15.06;70.97
58018;BME280;43810;50.860;19.226;2022-10-26T09:17:48;99133.69;;;15.36;69.80
58018;BME280;43810;50.860;19.226;2022-10-26T09:20:29;99136.13;;;15.41;70.03
58018;BME280;43810;50.860;19.226;2022-10-26T09:25:59;99140.16;;;15.70;68.83
58018;BME280;43810;50.860;19.226;2022-10-26T09:28:28;99139.88;;;15.75;67.73
58018;BME280;43810;50.860;19.226;2022-10-26T09:30:58;99148.81;;;15.82;68.06
58018;BME280;43810;50.860;19.226;2022-10-26T09:33:24;99141.75;;;15.93;68.27
58018;BME280;43810;50.860;19.226;2022-10-26T09:36:00;99146.94;;;16.06;67.81
58018;BME280;43810;50.860;19.226;2022-10-26T09:38:31;99149.97;;;16.23;65.73
58018;BME280;43810;50.860;19.226;2022-10-26T09:41:02;99148.34;;;16.19;66.35
58018;BME280;43810;50.860;19.226;2022-10-26T09:44:09;99148.16;;;16.08;67.43
58018;BME280;43810;50.860;19.226;2022-10-26T09:49:24;99147.72;;;16.52;67.27
58018;BME280;43810;50.860;19.226;2022-10-26T09:51:54;99143.47;;;16.51;63.97
58018;BME280;43810;50.860;19.226;2022-10-26T09:54:20;99151.72;;;16.16;65.18
58018;BME280;43810;50.860;19.226;2022-10-26T09:56:50;99148.19;;;15.89;66.25
58018;BME280;43810;50.860;19.226;2022-10-26T09:59:20;99161.06;;;15.80;66.46
58018;BME280;43810;50.860;19.226;2022-10-26T10:01:46;99148.31;;;15.96;66.61
58018;BME280;43810;50.860;19.226;2022-10-26T10:06:39;99157.34;;;16.53;65.33
58018;BME280;43810;50.860;19.226;2022-10-26T10:09:11;99148.47;;;16.72;63.73
58018;BME280;43810;50.860;19.226;2022-10-26T10:11:58;99155.13;;;16.81;63.31
58018;BME280;43810;50.860;19.226;2022-10-26T10:14:27;99152.56;;;16.43;63.46
58018;BME280;43810;50.860;19.226;2022-10-26T10:16:58;99146.66;;;16.34;64.58
58018;BME280;43810;50.860;19.226;2022-10-26T10:21:56;99155.56;;;16.38;64.75
58018;BME280;43810;50.860;19.226;2022-10-26T10:24:28;99149.25;;;16.49;64.91
58018;BME280;43810;50.860;19.226;2022-10-26T10:27:02;99155.50;;;16.80;64.51
58018;BME280;43810;50.860;19.226;2022-10-26T10:29:35;99156.03;;;17.19;61.72
58018;BME280;43810;50.860;19.226;2022-10-26T10:32:04;99157.31;;;17.28;60.07
58018;BME280;43810;50.860;19.226;2022-10-26T10:34:31;99153.66;;;16.87;61.82
58018;BME280;43810;50.860;19.226;2022-10-26T10:36:58;99156.22;;;17.03;62.61
58018;BME280;43810;50.860;19.226;2022-10-26T10:41:56;99149.84;;;17.15;61.09
58018;BME280;43810;50.860;19.226;2022-10-26T10:44:29;99150.88;;;17.07;60.09
58018;BME280;43810;50.860;19.226;2022-10-26T10:47:03;99149.25;;;16.72;60.55
58018;BME280;43810;50.860;19.226;2022-10-26T10:49:30;99137.41;;;16.54;61.78
58018;BME280;43810;50.860;19.226;2022-10-26T10:51:56;99144.16;;;16.67;63.42
58018;BME280;43810;50.860;19.226;2022-10-26T10:54:41;99152.25;;;16.93;63.20
58018;BME280;43810;50.860;19.226;2022-10-26T10:57:24;99141.56;;;17.00;60.14
58018;BME280;43810;50.860;19.226;2022-10-26T11:00:05;99141.72;;;16.85;61.60
58018;BME280;43810;50.860;19.226;2022-10-26T11:08:02;99149.09;;;16.19;61.22
58018;BME280;43810;50.860;19.226;2022-10-26T11:10:36;99153.53;;;16.31;62.95
58018;BME280;43810;50.860;19.226;2022-10-26T11:13:09;99155.56;;;16.38;61.25
58018;BME280;43810;50.860;19.226;2022-10-26T11:15:41;99150.38;;;16.48;61.17
58018;BME280;43810;50.860;19.226;2022-10-26T11:18:23;99144.22;;;16.48;60.19
58018;BME280;43810;50.860;19.226;2022-10-26T11:21:21;99148.16;;;16.54;62.69
58018;BME280;43810;50.860;19.226;2022-10-26T11:26:43;99151.31;;;16.59;62.75
58018;BME280;43810;50.860;19.226;2022-10-26T11:29:26;99155.63;;;16.64;62.37
58018;BME280;43810;50.860;19.226;2022-10-26T11:32:05;99145.66;;;16.64;61.27
58018;BME280;43810;50.860;19.226;2022-10-26T11:37:29;99148.09;;;16.99;62.67
58018;BME280;43810;50.860;19.226;2022-10-26T11:40:04;99141.22;;;17.32;59.33
58018;BME280;43810;50.860;19.226;2022-10-26T11:45:30;99144.69;;;17.32;58.86
58018;BME280;43810;50.860;19.226;2022-10-26T11:48:13;99135.97;;;17.43;58.78
58018;BME280;43810;50.860;19.226;2022-10-26T11:50:52;99136.63;;;17.66;58.64
58018;BME280;43810;50.860;19.226;2022-10-26T11:53:37;99141.44;;;17.50;58.64
58018;BME280;43810;50.860;19.226;2022-10-26T11:56:10;99134.50;;;17.49;57.90
58018;BME280;43810;50.860;19.226;2022-10-26T11:58:38;99137.06;;;17.38;57.79
58018;BME280;43810;50.860;19.226;2022-10-26T12:01:10;99134.47;;;17.15;58.67
58018;BME280;43810;50.860;19.226;2022-10-26T12:03:42;99127.91;;;16.83;59.44
58018;BME280;43810;50.860;19.226;2022-10-26T12:06:15;99131.28;;;16.80;58.73
58018;BME280;43810;50.860;19.226;2022-10-26T12:08:51;99136.16;;;16.71;59.50
58018;BME280;43810;50.860;19.226;2022-10-26T12:14:05;99134.78;;;16.57;61.01
58018;BME280;43810;50.860;19.226;2022-10-26T12:16:46;99131.00;;;16.39;61.63
58018;BME280;43810;50.860;19.226;2022-10-26T12:19:48;99137.56;;;16.38;63.32
58018;BME280;43810;50.860;19.226;2022-10-26T12:22:13;99133.13;;;16.49;59.42
58018;BME280;43810;50.860;19.226;2022-10-26T12:24:45;99131.16;;;16.69;62.21
58018;BME280;43810;50.860;19.226;2022-10-26T12:37:56;99126.19;;;18.93;53.33
58018;BME280;43810;50.860;19.226;2022-10-26T12:40:40;99140.19;;;19.16;54.02
58018;BME280;43810;50.860;19.226;2022-10-26T12:45:42;99131.44;;;19.41;50.96
58018;BME280;43810;50.860;19.226;2022-10-26T12:48:47;99124.88;;;19.35;51.51
58018;BME280;43810;50.860;19.226;2022-10-26T12:56:50;99128.84;;;19.55;51.11
58018;BME280;43810;50.860;19.226;2022-10-26T13:08:08;99119.75;;;18.06;54.18
58018;BME280;43810;50.860;19.226;2022-10-26T13:10:36;99122.66;;;17.53;55.89
58018;BME280;43810;50.860;19.226;2022-10-26T13:13:05;99122.16;;;17.14;57.36
58018;BME280;43810;50.860;19.226;2022-10-26T13:15:39;99123.59;;;16.78;59.28
58018;BME280;43810;50.860;19.226;2022-10-26T13:20:31;99124.75;;;17.37;59.38
58018;BME280;43810;50.860;19.226;2022-10-26T13:23:00;99121.50;;;17.88;56.77
58018;BME280;43810;50.860;19.226;2022-10-26T13:25:28;99122.13;;;18.59;53.96
58018;BME280;43810;50.860;19.226;2022-10-26T13:28:00;99110.84;;;19.04;51.97
58018;BME280;43810;50.860;19.226;2022-10-26T13:32:59;99119.91;;;19.44;49.30
58018;BME280;43810;50.860;19.226;2022-10-26T13:35:26;99119.63;;;19.67;50.62
58018;BME280;43810;50.860;19.226;2022-10-26T13:37:55;99117.34;;;19.83;49.76
58018;BME280;43810;50.860;19.226;2022-10-26T13:40:24;99108.91;;;20.27;48.98
58018;BME280;43810;50.860;19.226;2022-10-26T13:42:56;99116.25;;;20.48;45.93
58018;BME280;43810;50.860;19.226;2022-10-26T13:45:27;99115.88;;;20.49;47.54
58018;BME280;43810;50.860;19.226;2022-10-26T13:48:00;99120.47;;;20.74;46.90
58018;BME280;43810;50.860;19.226;2022-10-26T13:50:31;99118.16;;;20.33;47.11
58018;BME280;43810;50.860;19.226;2022-10-26T13:53:07;99124.31;;;19.95;48.38
58018;BME280;43810;50.860;19.226;2022-10-26T13:55:50;99114.84;;;19.32;49.15
58018;BME280;43810;50.860;19.226;2022-10-26T13:58:19;99130.75;;;18.78;51.71
58018;BME280;43810;50.860;19.226;2022-10-26T14:03:35;99123.44;;;17.57;54.36
58018;BME280;43810;50.860;19.226;2022-10-26T14:06:11;99126.91;;;17.24;55.52
58018;BME280;43810;50.860;19.226;2022-10-26T14:08:41;99128.28;;;16.85;56.91
58018;BME280;43810;50.860;19.226;2022-10-26T14:11:10;99129.06;;;16.36;58.33
58018;BME280;43810;50.860;19.226;2022-10-26T14:13:37;99130.66;;;16.18;59.32
58018;BME280;43810;50.860;19.226;2022-10-26T14:16:06;99126.16;;;16.22;59.02
58018;BME280;43810;50.860;19.226;2022-10-26T14:18:32;99128.91;;;16.25;59.32
58018;BME280;43810;50.860;19.226;2022-10-26T14:21:00;99130.97;;;16.13;59.84
58018;BME280;43810;50.860;19.226;2022-10-26T14:23:36;99145.00;;;16.25;60.98
58018;BME280;43810;50.860;19.226;2022-10-26T14:26:03;99129.59;;;16.22;60.98
58018;BME280;43810;50.860;19.226;2022-10-26T14:28:31;99129.06;;;16.13;60.34
58018;BME280;43810;50.860;19.226;2022-10-26T14:31:11;99134.09;;;16.15;60.40
58018;BME280;43810;50.860;19.226;2022-10-26T14:33:37;99128.16;;;16.28;60.16
58018;BME280;43810;50.860;19.226;2022-10-26T14:36:03;99131.63;;;16.29;59.74
58018;BME280;43810;50.860;19.226;2022-10-26T14:38:33;99139.06;;;16.16;59.84
58018;BME280;43810;50.860;19.226;2022-10-26T14:41:01;99141.81;;;15.97;60.54
58018;BME280;43810;50.860;19.226;2022-10-26T14:43:27;99136.06;;;15.76;61.08
58018;BME280;43810;50.860;19.226;2022-10-26T14:45:53;99136.88;;;15.57;61.70
58018;BME280;43810;50.860;19.226;2022-10-26T14:48:32;99146.75;;;15.37;62.41
58018;BME280;43810;50.860;19.226;2022-10-26T14:51:02;99145.22;;;15.01;63.47
58018;BME280;43810;50.860;19.226;2022-10-26T14:53:39;99146.94;;;14.74;65.03
58018;BME280;43810;50.860;19.226;2022-10-26T14:56:23;99155.09;;;14.62;65.16
58018;BME280;43810;50.860;19.226;2022-10-26T14:58:49;99149.13;;;14.53;65.58
58018;BME280;43810;50.860;19.226;2022-10-26T15:01:22;99149.22;;;14.41;66.12
58018;BME280;43810;50.860;19.226;2022-10-26T15:03:53;99151.16;;;14.28;66.60
58018;BME280;43810;50.860;19.226;2022-10-26T15:06:37;99155.81;;;14.16;67.57